Time;durP1;ratioP1;P1;durP2;ratioP2;P2;SDS_P1;SDS_P2;PMS_P1;PMS_P2;Temp;Humidity;BMP_temperature;BMP_pressure;BME280_temperature;BME280_humidity;BME280_pressure;Samples;Min_cycle;Max_cycle;Signal;HPM_P1;HPM_P2
2021/01/28 00:00:13;;;;;;;16.75;5.35;;;;;;;;;;4974373;28;20034;-86
2021/01/28 00:02:43;;;;;;;12.90;4.30;;;;;;;;;;4972581;28;20109;-85
2021/01/28 00:05:10;;;;;;;13.93;4.72;;;;;;;;;;4941432;28;20051;-86
2021/01/28 00:07:36;;;;;;;15.85;5.28;;;;;;;;;;4976224;28;20030;-86
2021/01/28 00:10:05;;;;;;;15.35;5.53;;;;;;;;;;4947953;28;20381;-86
2021/01/28 00:12:33;;;;;;;14.63;6.20;;;;;;;;;;4902241;28;20049;-85
2021/01/28 00:14:59;;;;;;;15.50;4.97;;;;;;;;;;4886815;28;20519;-86
2021/01/28 00:17:26;;;;;;;14.95;5.75;;;;;;;;;;4926066;28;20099;-85
2021/01/28 00:19:53;;;;;;;;;;;;;;;;;;4933563;28;20925;-85
2021/01/28 00:22:19;;;;;;;10.80;3.95;;;;;;;;;;4943079;28;19921;-86
2021/01/28 00:24:46;;;;;;;;;;;;;;;;;;4916112;28;20642;-86
2021/01/28 00:27:13;;;;;;;12.80;4.50;;;;;;;;;;4912770;28;20028;-84
2021/01/28 00:29:40;;;;;;;14.82;5.85;;;;;;;;;;4934019;28;20035;-84
2021/01/28 00:32:10;;;;;;;12.02;5.20;;;;;;;;;;4926665;28;20061;-86
2021/01/28 00:34:43;;;;;;;16.05;6.38;;;;;;;;;;4958393;28;20041;-84
2021/01/28 00:37:11;;;;;;;14.10;5.75;;;;;;;;;;4907634;28;20184;-84
2021/01/28 00:39:37;;;;;;;11.05;4.78;;;;;;;;;;4947199;28;20142;-84
2021/01/28 00:42:03;;;;;;;;;;;;;;;;;;4905974;28;20134;-84
2021/01/28 00:44:41;;;;;;;11.75;4.10;;;;;;;;;;4962602;28;20488;-85
2021/01/28 00:47:22;;;;;;;12.13;4.93;;;;;;;;;;4980189;28;20133;-84
2021/01/28 00:49:50;;;;;;;12.45;5.13;;;;;;;;;;4980797;28;20119;-85
2021/01/28 00:52:18;;;;;;;15.30;4.57;;;;;;;;;;4986140;28;20037;-85
2021/01/28 00:54:44;;;;;;;14.25;4.60;;;;;;;;;;4984081;28;20044;-84
2021/01/28 00:57:12;;;;;;;11.73;4.53;;;;;;;;;;4960949;28;20140;-85
2021/01/28 00:59:39;;;;;;;11.13;4.57;;;;;;;;;;4978561;28;20639;-84
2021/01/28 01:02:05;;;;;;;13.25;4.70;;;;;;;;;;4972806;28;20685;-84
2021/01/28 01:04:37;;;;;;;10.70;4.60;;;;;;;;;;4984915;28;20698;-84
2021/01/28 01:07:03;;;;;;;11.48;4.47;;;;;;;;;;4982049;28;20044;-85
2021/01/28 01:09:29;;;;;;;;;;;;;;;;;;4998180;28;20723;-85
2021/01/28 01:11:57;;;;;;;12.57;4.25;;;;;;;;;;4960278;28;19920;-85
2021/01/28 01:14:25;;;;;;;11.30;3.95;;;;;;;;;;4972790;28;20056;-86
2021/01/28 01:16:51;;;;;;;11.63;3.83;;;;;;;;;;4974419;28;20355;-85
2021/01/28 01:19:19;;;;;;;;;;;;;;;;;;4985910;28;20029;-85
2021/01/28 01:21:46;;;;;;;15.73;5.22;;;;;;;;;;4966987;28;19917;-85
2021/01/28 01:24:17;;;;;;;12.02;4.78;;;;;;;;;;4992685;28;20041;-84
2021/01/28 01:26:44;;;;;;;11.60;4.45;;;;;;;;;;4984897;28;20041;-85
2021/01/28 01:29:12;;;;;;;13.20;5.20;;;;;;;;;;4964336;28;20042;-85
2021/01/28 01:31:39;;;;;;;16.10;5.05;;;;;;;;;;5001362;28;20496;-85
2021/01/28 01:34:05;;;;;;;13.30;5.18;;;;;;;;;;4981338;28;20025;-85
2021/01/28 01:36:31;;;;;;;;;;;;;;;;;;4998976;28;20061;-84
2021/01/28 01:39:01;;;;;;;14.30;4.90;;;;;;;;;;4994258;28;20107;-85
2021/01/28 01:41:31;;;;;;;13.20;5.38;;;;;;;;;;4980756;28;20057;-85
2021/01/28 01:43:59;;;;;;;13.10;5.32;;;;;;;;;;4978732;28;20025;-84
2021/01/28 01:46:27;;;;;;;13.60;5.03;;;;;;;;;;5010847;28;20037;-84
2021/01/28 01:48:59;;;;;;;12.75;4.95;;;;;;;;;;4987623;28;20075;-84
2021/01/28 01:51:36;;;;;;;13.18;4.57;;;;;;;;;;4970865;28;20045;-84
2021/01/28 01:54:02;;;;;;;;;;;;;;;;;;4979802;28;20067;-85
2021/01/28 01:56:47;;;;;;;12.55;4.57;;;;;;;;;;4995739;28;19925;-84
2021/01/28 01:59:22;;;;;;;14.15;4.18;;;;;;;;;;4960607;28;20042;-86
2021/01/28 02:01:57;;;;;;;9.40;2.97;;;;;;;;;;4977829;28;20119;-85
2021/01/28 02:04:24;;;;;;;9.52;2.70;;;;;;;;;;5008519;28;20028;-85
2021/01/28 02:07:00;;;;;;;10.65;2.78;;;;;;;;;;4962719;28;20046;-85
2021/01/28 02:09:27;;;;;;;9.33;2.93;;;;;;;;;;4933986;28;20129;-85
2021/01/28 02:11:54;;;;;;;11.88;3.75;;;;;;;;;;4973198;28;20053;-84
2021/01/28 02:14:23;;;;;;;12.52;5.38;;;;;;;;;;4975172;28;20041;-85
2021/01/28 02:16:54;;;;;;;15.38;5.82;;;;;;;;;;4993391;28;20021;-85
2021/01/28 02:19:32;;;;;;;12.98;5.35;;;;;;;;;;4999027;28;20741;-84
2021/01/28 02:22:00;;;;;;;12.88;5.57;;;;;;;;;;4971722;28;20086;-84
2021/01/28 02:24:42;;;;;;;12.63;5.10;;;;;;;;;;4996381;28;20060;-85
2021/01/28 02:27:11;;;;;;;10.00;2.80;;;;;;;;;;4990103;28;20716;-85
2021/01/28 02:29:38;;;;;;;9.70;3.20;;;;;;;;;;5008847;28;20037;-85
2021/01/28 02:32:05;;;;;;;9.15;3.03;;;;;;;;;;4994424;28;20101;-85
2021/01/28 02:34:32;;;;;;;9.98;3.00;;;;;;;;;;5015218;28;20702;-85
2021/01/28 02:36:59;;;;;;;9.55;3.30;;;;;;;;;;4991030;28;20124;-82
2021/01/28 02:39:27;;;;;;;11.40;3.70;;;;;;;;;;5019283;28;20485;-84
2021/01/28 02:41:59;;;;;;;9.55;3.13;;;;;;;;;;4985186;28;20088;-84
2021/01/28 02:44:27;;;;;;;9.48;2.95;;;;;;;;;;4995241;28;20610;-85
2021/01/28 02:46:54;;;;;;;11.77;3.03;;;;;;;;;;5002319;28;20049;-83
2021/01/28 02:49:22;;;;;;;;;;;;;;;;;;4993190;28;20026;-84
2021/01/28 02:51:49;;;;;;;9.15;3.10;;;;;;;;;;4998172;28;19920;-84
2021/01/28 02:54:15;;;;;;;9.07;2.85;;;;;;;;;;4974943;28;20049;-84
2021/01/28 02:56:44;;;;;;;9.30;2.75;;;;;;;;;;5002005;28;20037;-84
2021/01/28 02:59:11;;;;;;;8.35;2.90;;;;;;;;;;4977517;28;20057;-83
2021/01/28 03:01:40;;;;;;;10.35;3.92;;;;;;;;;;5017896;28;20029;-84
2021/01/28 03:04:12;;;;;;;8.68;2.83;;;;;;;;;;4989438;28;20034;-84
2021/01/28 03:06:39;;;;;;;9.68;3.00;;;;;;;;;;4985089;28;20048;-84
2021/01/28 03:09:10;;;;;;;8.13;2.85;;;;;;;;;;5003603;28;20038;-84
2021/01/28 03:11:36;;;;;;;7.15;2.55;;;;;;;;;;4999856;28;20409;-85
2021/01/28 03:14:02;;;;;;;7.72;2.20;;;;;;;;;;4998259;28;20466;-84
2021/01/28 03:16:32;;;;;;;7.20;2.45;;;;;;;;;;4998962;28;21270;-83
2021/01/28 03:19:01;;;;;;;8.45;2.60;;;;;;;;;;4995826;28;20052;-85
2021/01/28 03:21:27;;;;;;;;;;;;;;;;;;4988044;28;20045;-85
2021/01/28 03:23:54;;;;;;;8.30;2.70;;;;;;;;;;4998089;28;20537;-84
2021/01/28 03:26:22;;;;;;;8.75;2.67;;;;;;;;;;4969768;28;20056;-84
2021/01/28 03:28:51;;;;;;;7.95;2.55;;;;;;;;;;4984731;28;20083;-84
2021/01/28 03:31:21;;;;;;;7.57;2.30;;;;;;;;;;4963346;28;20808;-84
2021/01/28 03:33:49;;;;;;;8.07;2.35;;;;;;;;;;4978264;28;21226;-85
2021/01/28 03:36:16;;;;;;;8.45;2.17;;;;;;;;;;4975312;28;20218;-84
2021/01/28 03:38:42;;;;;;;6.65;2.13;;;;;;;;;;4960614;28;20096;-85
2021/01/28 03:41:12;;;;;;;8.02;2.20;;;;;;;;;;4958641;28;20572;-85
2021/01/28 03:43:42;;;;;;;6.68;2.15;;;;;;;;;;4970685;28;20029;-85
2021/01/28 03:46:14;;;;;;;7.68;2.38;;;;;;;;;;4982855;28;20053;-85
2021/01/28 03:48:40;;;;;;;8.68;2.60;;;;;;;;;;4980026;28;20069;-85
2021/01/28 03:51:07;;;;;;;8.98;2.40;;;;;;;;;;4960816;28;20049;-85
2021/01/28 03:53:34;;;;;;;10.82;2.90;;;;;;;;;;4965655;28;20042;-84
2021/01/28 03:56:01;;;;;;;9.32;2.65;;;;;;;;;;4972574;28;20045;-86
2021/01/28 03:58:29;;;;;;;8.95;2.53;;;;;;;;;;4975866;28;20041;-85
2021/01/28 04:00:57;;;;;;;7.40;2.45;;;;;;;;;;4977828;28;20191;-86
2021/01/28 04:03:24;;;;;;;8.40;2.60;;;;;;;;;;4973175;28;20037;-85
2021/01/28 04:05:55;;;;;;;8.70;2.88;;;;;;;;;;4979870;28;20043;-85
2021/01/28 04:08:32;;;;;;;11.32;3.33;;;;;;;;;;4980006;28;20499;-85
2021/01/28 04:10:59;;;;;;;8.60;2.97;;;;;;;;;;4974525;28;22542;-85
2021/01/28 04:13:25;;;;;;;;;;;;;;;;;;4979643;28;20037;-85
2021/01/28 04:15:53;;;;;;;7.82;2.88;;;;;;;;;;4951671;28;19925;-84
2021/01/28 04:18:20;;;;;;;8.15;2.60;;;;;;;;;;4913435;28;20241;-85
2021/01/28 04:20:49;;;;;;;8.43;2.80;;;;;;;;;;4974561;28;20213;-86
2021/01/28 04:23:15;;;;;;;7.47;2.40;;;;;;;;;;4947296;28;20825;-86
2021/01/28 04:25:43;;;;;;;7.95;2.50;;;;;;;;;;4972001;28;20061;-86
2021/01/28 04:28:13;;;;;;;9.20;2.55;;;;;;;;;;5000307;28;20095;-83
2021/01/28 04:30:41;;;;;;;8.00;2.70;;;;;;;;;;5005641;28;20128;-84
2021/01/28 04:33:15;;;;;;;8.93;2.63;;;;;;;;;;4959694;28;20543;-84
2021/01/28 04:35:44;;;;;;;8.52;2.60;;;;;;;;;;4983693;28;20049;-84
2021/01/28 04:38:11;;;;;;;7.38;2.65;;;;;;;;;;4985084;28;20061;-84
2021/01/28 04:40:48;;;;;;;8.43;2.35;;;;;;;;;;4984814;28;20038;-84
2021/01/28 04:43:22;;;;;;;8.98;2.25;;;;;;;;;;4998576;28;20441;-85
2021/01/28 04:45:49;;;;;;;7.43;2.25;;;;;;;;;;5003198;28;20501;-85
2021/01/28 04:48:17;;;;;;;8.60;2.15;;;;;;;;;;4990424;28;20538;-85
2021/01/28 04:50:44;;;;;;;6.75;2.33;;;;;;;;;;4998586;28;20144;-85
2021/01/28 04:53:22;;;;;;;7.25;2.28;;;;;;;;;;4994465;28;20532;-84
2021/01/28 04:55:52;;;;;;;7.95;2.53;;;;;;;;;;5011845;28;20106;-85
2021/01/28 04:58:19;;;;;;;8.48;2.80;;;;;;;;;;5009480;28;20076;-85
2021/01/28 05:00:47;;;;;;;9.07;3.28;;;;;;;;;;4996966;28;20050;-85
2021/01/28 05:03:21;;;;;;;7.72;2.65;;;;;;;;;;4975423;28;20044;-85
2021/01/28 05:06:03;;;;;;;7.72;2.33;;;;;;;;;;5004107;28;20041;-84
2021/01/28 05:08:32;;;;;;;7.32;2.42;;;;;;;;;;4959571;28;21247;-87
2021/01/28 05:11:00;;;;;;;6.43;2.20;;;;;;;;;;4997578;28;20580;-87
2021/01/28 05:13:29;;;;;;;7.22;2.38;;;;;;;;;;5026856;28;20029;-88
2021/01/28 05:15:58;;;;;;;7.35;2.30;;;;;;;;;;5017930;28;20045;-87
2021/01/28 05:18:36;;;;;;;9.60;2.58;;;;;;;;;;5005169;28;20048;-88
2021/01/28 05:21:07;;;;;;;8.20;2.00;;;;;;;;;;5006785;28;20440;-87
2021/01/28 05:23:41;;;;;;;7.75;2.88;;;;;;;;;;4995890;28;20490;-87
2021/01/28 05:26:28;;;;;;;8.93;2.20;;;;;;;;;;4988099;28;20053;-86
2021/01/28 05:28:54;;;;;;;7.18;2.28;;;;;;;;;;4959482;28;20124;-87
2021/01/28 05:31:47;;;;;;;7.07;2.47;;;;;;;;;;4970974;28;20355;-87
2021/01/28 05:34:14;;;;;;;6.47;2.20;;;;;;;;;;4946208;28;20046;-86
2021/01/28 05:36:45;;;;;;;6.43;2.00;;;;;;;;;;4968021;28;20045;-87
2021/01/28 05:39:25;;;;;;;7.60;2.67;;;;;;;;;;4969806;28;20098;-86
2021/01/28 05:41:54;;;;;;;6.18;1.85;;;;;;;;;;4944732;28;20028;-86
2021/01/28 05:44:29;;;;;;;9.65;2.50;;;;;;;;;;4958468;28;20030;-86
2021/01/28 05:47:05;;;;;;;7.47;2.20;;;;;;;;;;4985931;28;20489;-86
2021/01/28 05:49:33;;;;;;;9.13;2.45;;;;;;;;;;4950007;28;20663;-84
2021/01/28 05:52:12;;;;;;;10.07;2.25;;;;;;;;;;4956526;28;20041;-86
2021/01/28 05:54:50;;;;;;;7.40;2.17;;;;;;;;;;4958170;28;20042;-85
2021/01/28 05:57:26;;;;;;;10.00;3.70;;;;;;;;;;4982528;28;20173;-87
2021/01/28 06:00:18;;;;;;;9.52;3.85;;;;;;;;;;4975600;28;20075;-88
2021/01/28 06:03:07;;;;;;;9.70;3.25;;;;;;;;;;4980272;28;20038;-89
2021/01/28 06:05:44;;;;;;;8.02;2.30;;;;;;;;;;4999050;28;20025;-89
2021/01/28 06:08:32;;;;;;;5.45;1.88;;;;;;;;;;4969768;28;20037;-88
2021/01/28 06:11:13;;;;;;;6.03;1.90;;;;;;;;;;4982374;28;20030;-89
2021/01/28 06:13:51;;;;;;;6.30;1.75;;;;;;;;;;5014438;28;20029;-88
2021/01/28 06:16:27;;;;;;;6.55;2.00;;;;;;;;;;4964628;28;20042;-88
2021/01/28 06:19:12;;;;;;;6.40;1.87;;;;;;;;;;4949662;28;20034;-88
2021/01/28 06:22:12;;;;;;;4.60;1.42;;;;;;;;;;4985057;28;20335;-89
2021/01/28 06:25:01;;;;;;;12.00;2.90;;;;;;;;;;4933276;28;20042;-89
2021/01/28 06:27:47;;;;;;;7.72;2.58;;;;;;;;;;4941264;28;20049;-87
2021/01/28 06:30:27;;;;;;;9.63;2.60;;;;;;;;;;4978332;28;20044;-86
2021/01/28 06:33:17;;;;;;;7.38;2.42;;;;;;;;;;4927669;28;20105;-87
2021/01/28 06:36:06;;;;;;;11.30;3.50;;;;;;;;;;4992321;28;20066;-89
2021/01/28 06:38:45;;;;;;;7.85;3.08;;;;;;;;;;4994421;28;20285;-88
2021/01/28 06:41:16;;;;;;;9.10;2.33;;;;;;;;;;4990525;28;20183;-86
2021/01/28 06:44:05;;;;;;;8.95;2.90;;;;;;;;;;4953950;28;20065;-86
2021/01/28 06:46:51;;;;;;;8.43;2.30;;;;;;;;;;4931411;28;20034;-86
2021/01/28 06:49:23;;;;;;;7.93;2.05;;;;;;;;;;4965092;28;20682;-87
2021/01/28 06:52:00;;;;;;;7.28;2.45;;;;;;;;;;4931105;28;20149;-87
2021/01/28 06:54:43;;;;;;;9.15;2.50;;;;;;;;;;4924803;28;20035;-86
2021/01/28 06:57:17;;;;;;;5.32;1.83;;;;;;;;;;4954254;28;20403;-87
2021/01/28 06:59:52;;;;;;;6.60;1.85;;;;;;;;;;4931535;28;20031;-87
2021/01/28 07:02:34;;;;;;;7.07;2.10;;;;;;;;;;4945517;28;20031;-88
2021/01/28 07:05:28;;;;;;;7.50;2.13;;;;;;;;;;4959910;28;20496;-87
2021/01/28 07:08:00;;;;;;;6.22;1.90;;;;;;;;;;4977123;28;20136;-88
2021/01/28 07:10:36;;;;;;;7.55;2.25;;;;;;;;;;4988829;28;20030;-86
2021/01/28 07:13:04;;;;;;;7.75;2.58;;;;;;;;;;4956499;28;20062;-85
2021/01/28 07:15:35;;;;;;;6.57;2.13;;;;;;;;;;4987201;28;20045;-87
2021/01/28 07:18:24;;;;;;;8.13;1.90;;;;;;;;;;4990232;28;20038;-89
2021/01/28 07:21:12;;;;;;;11.07;3.63;;;;;;;;;;4914784;28;20047;-87
2021/01/28 07:23:40;;;;;;;8.13;3.20;;;;;;;;;;4929946;28;20039;-89
2021/01/28 07:26:14;;;;;;;10.50;3.42;;;;;;;;;;4907789;28;20380;-88
2021/01/28 07:28:50;;;;;;;10.98;2.97;;;;;;;;;;4941945;28;20031;-88
2021/01/28 07:31:25;;;;;;;8.32;2.88;;;;;;;;;;4975472;28;20046;-90
2021/01/28 07:34:03;;;;;;;8.05;2.55;;;;;;;;;;4930592;28;20042;-89
2021/01/28 07:36:33;;;;;;;11.32;3.72;;;;;;;;;;4939596;28;20074;-87
2021/01/28 07:39:12;;;;;;;;;;;;;;;;;;;;;
2021/01/28 07:41:41;;;;;;;10.93;3.53;;;;;;;;;;4932770;28;20043;-87
2021/01/28 07:44:26;;;;;;;7.43;2.08;;;;;;;;;;4923293;28;20039;-88
2021/01/28 07:46:55;;;;;;;8.15;2.28;;;;;;;;;;4913266;28;20043;-89
2021/01/28 07:49:29;;;;;;;7.75;2.40;;;;;;;;;;4931750;28;20047;-89
2021/01/28 07:52:00;;;;;;;7.90;2.72;;;;;;;;;;4904669;28;20102;-90
2021/01/28 07:54:31;;;;;;;9.05;3.33;;;;;;;;;;4907189;28;20189;-89
2021/01/28 07:57:10;;;;;;;8.80;2.75;;;;;;;;;;4922707;28;20397;-89
2021/01/28 07:59:39;;;;;;;8.98;2.33;;;;;;;;;;4974706;28;21000;-89
2021/01/28 08:02:10;;;;;;;7.65;2.92;;;;;;;;;;4995584;28;20124;-88
2021/01/28 08:04:49;;;;;;;9.82;2.75;;;;;;;;;;5009629;28;20035;-87
2021/01/28 08:07:21;;;;;;;9.55;3.13;;;;;;;;;;4983280;28;20049;-88
2021/01/28 08:09:54;;;;;;;8.00;2.83;;;;;;;;;;4984760;28;20062;-87
2021/01/28 08:12:50;;;;;;;12.25;3.08;;;;;;;;;;4979704;28;20037;-87
2021/01/28 08:15:44;;;;;;;10.30;3.90;;;;;;;;;;4987509;28;20038;-88
2021/01/28 08:18:20;;;;;;;12.38;4.55;;;;;;;;;;4932815;28;21093;-88
2021/01/28 08:20:57;;;;;;;8.07;3.60;;;;;;;;;;4912387;28;20444;-88
2021/01/28 08:23:27;;;;;;;8.40;3.83;;;;;;;;;;4917872;28;20555;-88
2021/01/28 08:26:05;;;;;;;12.68;3.60;;;;;;;;;;4942096;28;20035;-91
2021/01/28 08:28:34;;;;;;;10.25;4.13;;;;;;;;;;4969534;28;20415;-88
2021/01/28 08:31:19;;;;;;;12.32;4.45;;;;;;;;;;4931530;28;20039;-87
2021/01/28 08:33:49;;;;;;;10.50;4.03;;;;;;;;;;4944303;28;20045;-87
2021/01/28 08:36:25;;;;;;;9.30;4.20;;;;;;;;;;4947708;28;20055;-88
2021/01/28 08:39:16;;;;;;;10.10;4.43;;;;;;;;;;4954865;28;20497;-87
2021/01/28 08:41:44;;;;;;;9.30;3.78;;;;;;;;;;4905292;28;20039;-85
2021/01/28 08:44:15;;;;;;;10.10;3.80;;;;;;;;;;4939668;28;20038;-86
2021/01/28 08:46:46;;;;;;;9.93;4.60;;;;;;;;;;4941741;28;20121;-87
2021/01/28 08:49:26;;;;;;;10.90;4.90;;;;;;;;;;4939446;28;20046;-86
2021/01/28 08:52:01;;;;;;;12.40;5.05;;;;;;;;;;4917421;28;20054;-88
2021/01/28 08:54:33;;;;;;;11.30;4.70;;;;;;;;;;4905016;28;20132;-85
2021/01/28 08:57:01;;;;;;;8.98;3.20;;;;;;;;;;4993854;28;20088;-84
2021/01/28 08:59:39;;;;;;;10.70;3.13;;;;;;;;;;4954162;28;20041;-86
2021/01/28 09:02:06;;;;;;;8.57;3.60;;;;;;;;;;4951827;28;20034;-85
2021/01/28 09:04:35;;;;;;;7.88;2.67;;;;;;;;;;4999242;28;20021;-85
2021/01/28 09:07:03;;;;;;;10.27;2.88;;;;;;;;;;4972501;28;20674;-87
2021/01/28 09:09:34;;;;;;;10.23;2.90;;;;;;;;;;4971733;28;20040;-84
2021/01/28 09:12:20;;;;;;;9.93;3.08;;;;;;;;;;4921422;28;20502;-84
2021/01/28 09:14:48;;;;;;;9.52;3.92;;;;;;;;;;4985690;28;20081;-85
2021/01/28 09:17:30;;;;;;;9.95;3.80;;;;;;;;;;4975832;28;20117;-85
2021/01/28 09:19:59;;;;;;;9.60;3.22;;;;;;;;;;4967557;28;20152;-86
2021/01/28 09:22:43;;;;;;;8.85;3.78;;;;;;;;;;4969530;28;20029;-87
2021/01/28 09:25:36;;;;;;;10.05;3.40;;;;;;;;;;4926687;28;20064;-85
2021/01/28 09:28:39;;;;;;;9.38;3.13;;;;;;;;;;4966623;28;20065;-87
2021/01/28 09:31:20;;;;;;;8.57;3.17;;;;;;;;;;4951237;28;20096;-86
2021/01/28 09:33:47;;;;;;;10.18;3.47;;;;;;;;;;4966767;28;20440;-86
2021/01/28 09:36:27;;;;;;;8.70;3.20;;;;;;;;;;4968053;28;20834;-86
2021/01/28 09:38:59;;;;;;;8.25;3.33;;;;;;;;;;4970547;28;20301;-86
2021/01/28 09:41:27;;;;;;;9.82;3.33;;;;;;;;;;4954077;28;20042;-86
2021/01/28 09:43:54;;;;;;;10.57;3.30;;;;;;;;;;4969506;28;20149;-86
2021/01/28 09:46:30;;;;;;;10.68;2.28;;;;;;;;;;4979736;28;20083;-86
2021/01/28 09:49:11;;;;;;;7.40;1.88;;;;;;;;;;4967661;28;20034;-87
2021/01/28 09:51:37;;;;;;;7.38;2.17;;;;;;;;;;4923262;28;20046;-86
2021/01/28 09:54:14;;;;;;;7.63;2.78;;;;;;;;;;4885590;28;20036;-87
2021/01/28 09:56:44;;;;;;;9.23;4.45;;;;;;;;;;4938930;28;20534;-86
2021/01/28 09:59:14;;;;;;;14.68;9.15;;;;;;;;;;4916704;28;20137;-84
2021/01/28 10:01:47;;;;;;;18.45;11.82;;;;;;;;;;4956721;28;20031;-85
2021/01/28 10:04:15;;;;;;;13.55;6.25;;;;;;;;;;4975163;28;20038;-86
2021/01/28 10:06:43;;;;;;;10.30;4.78;;;;;;;;;;4959569;28;20469;-86
2021/01/28 10:09:13;;;;;;;13.57;3.50;;;;;;;;;;4968758;28;20065;-86
2021/01/28 10:11:46;;;;;;;6.43;2.13;;;;;;;;;;4957714;28;20101;-85
2021/01/28 10:14:14;;;;;;;5.28;1.80;;;;;;;;;;4949173;28;20382;-86
2021/01/28 10:16:43;;;;;;;8.02;2.70;;;;;;;;;;4979598;28;20049;-86
2021/01/28 10:19:13;;;;;;;7.97;3.00;;;;;;;;;;4980815;28;20073;-86
2021/01/28 10:21:42;;;;;;;10.00;3.90;;;;;;;;;;4920478;28;20422;-84
2021/01/28 10:24:12;;;;;;;9.15;4.40;;;;;;;;;;4960408;28;20605;-85
2021/01/28 10:26:39;;;;;;;11.10;4.35;;;;;;;;;;4967406;28;20049;-85
2021/01/28 10:29:06;;;;;;;9.75;4.28;;;;;;;;;;4972125;28;20058;-85
2021/01/28 10:31:34;;;;;;;8.88;3.78;;;;;;;;;;4996370;28;20971;-85
2021/01/28 10:34:02;;;;;;;9.90;4.00;;;;;;;;;;4966208;28;20087;-85
2021/01/28 10:36:28;;;;;;;11.27;4.35;;;;;;;;;;5005700;28;20106;-85
2021/01/28 10:38:57;;;;;;;12.07;5.10;;;;;;;;;;4990752;28;20073;-85
2021/01/28 10:41:28;;;;;;;11.18;4.78;;;;;;;;;;5012627;28;20069;-85
2021/01/28 10:43:56;;;;;;;10.02;4.78;;;;;;;;;;4979383;28;20042;-86
2021/01/28 10:46:23;;;;;;;10.48;3.90;;;;;;;;;;4984717;28;20056;-85
2021/01/28 10:48:49;;;;;;;8.85;3.78;;;;;;;;;;5012174;28;21115;-86
2021/01/28 10:51:17;;;;;;;10.13;3.30;;;;;;;;;;4995913;28;20069;-85
2021/01/28 10:53:46;;;;;;;9.07;2.70;;;;;;;;;;4996717;28;20531;-87
2021/01/28 10:56:12;;;;;;;10.45;3.35;;;;;;;;;;4992623;28;20041;-86
2021/01/28 10:58:44;;;;;;;7.20;2.08;;;;;;;;;;5000499;28;20029;-85
2021/01/28 11:01:10;;;;;;;6.20;1.90;;;;;;;;;;4999374;28;20106;-85
2021/01/28 11:03:42;;;;;;;5.43;1.60;;;;;;;;;;5001351;28;20069;-86
2021/01/28 11:06:11;;;;;;;10.98;3.13;;;;;;;;;;5002857;28;20606;-86
2021/01/28 11:08:40;;;;;;;8.20;2.92;;;;;;;;;;5017373;28;20036;-85
2021/01/28 11:11:10;;;;;;;8.98;2.50;;;;;;;;;;4993101;28;20103;-85
2021/01/28 11:13:42;;;;;;;9.02;2.80;;;;;;;;;;5019877;28;20139;-86
2021/01/28 11:16:12;;;;;;;10.10;4.22;;;;;;;;;;4989724;28;20095;-85
2021/01/28 11:18:39;;;;;;;9.48;4.20;;;;;;;;;;4978271;28;20106;-85
2021/01/28 11:21:07;;;;;;;10.55;3.63;;;;;;;;;;5001297;28;20037;-85
2021/01/28 11:23:36;;;;;;;8.70;3.33;;;;;;;;;;5017588;28;20030;-86
2021/01/28 11:26:06;;;;;;;8.52;2.92;;;;;;;;;;5003981;28;20132;-85
2021/01/28 11:28:33;;;;;;;8.10;3.20;;;;;;;;;;5004137;28;20041;-86
2021/01/28 11:31:01;;;;;;;8.55;3.08;;;;;;;;;;5000467;28;20030;-85
2021/01/28 11:33:30;;;;;;;7.85;2.22;;;;;;;;;;4974699;28;20840;-86
2021/01/28 11:35:57;;;;;;;8.45;2.40;;;;;;;;;;4961455;28;20053;-85
2021/01/28 11:38:29;;;;;;;9.15;3.70;;;;;;;;;;4998076;28;20037;-85
2021/01/28 11:40:56;;;;;;;8.20;3.15;;;;;;;;;;4971796;28;20028;-86
2021/01/28 11:43:23;;;;;;;8.35;3.40;;;;;;;;;;4973719;28;20112;-88
2021/01/28 11:45:49;;;;;;;12.98;3.22;;;;;;;;;;5010429;28;20036;-85
2021/01/28 11:48:17;;;;;;;9.30;3.42;;;;;;;;;;5000641;28;20046;-87
2021/01/28 11:50:46;;;;;;;9.15;3.05;;;;;;;;;;4995664;28;20042;-87
2021/01/28 11:53:15;;;;;;;11.45;4.85;;;;;;;;;;4993254;28;20080;-85
2021/01/28 11:55:44;;;;;;;9.13;3.08;;;;;;;;;;4991967;28;20041;-86
2021/01/28 11:58:12;;;;;;;8.40;2.42;;;;;;;;;;5029312;28;20038;-86
2021/01/28 12:00:41;;;;;;;8.45;2.40;;;;;;;;;;4992694;28;20071;-85
2021/01/28 12:03:12;;;;;;;8.30;2.50;;;;;;;;;;4989309;28;20040;-86
2021/01/28 12:05:40;;;;;;;7.50;2.38;;;;;;;;;;5001276;28;20127;-85
2021/01/28 12:08:11;;;;;;;7.13;2.10;;;;;;;;;;4994797;28;20137;-86
2021/01/28 12:10:39;;;;;;;8.20;2.33;;;;;;;;;;5024370;28;20049;-87
2021/01/28 12:13:11;;;;;;;9.90;2.35;;;;;;;;;;4997632;28;20064;-86
2021/01/28 12:15:39;;;;;;;6.82;2.40;;;;;;;;;;4973018;28;20057;-87
2021/01/28 12:18:07;;;;;;;6.80;2.08;;;;;;;;;;4989464;28;20131;-86
2021/01/28 12:20:33;;;;;;;6.55;2.17;;;;;;;;;;5011399;28;20396;-86
2021/01/28 12:23:01;;;;;;;10.20;2.60;;;;;;;;;;4980121;28;20875;-86
2021/01/28 12:25:37;;;;;;;6.95;2.28;;;;;;;;;;4989289;28;20040;-88
2021/01/28 12:28:05;;;;;;;7.90;2.33;;;;;;;;;;4962929;28;20053;-87
2021/01/28 12:30:33;;;;;;;7.65;2.20;;;;;;;;;;4974005;28;20042;-87
2021/01/28 12:33:02;;;;;;;9.90;2.38;;;;;;;;;;4959653;28;20040;-85
2021/01/28 12:35:29;;;;;;;7.65;2.58;;;;;;;;;;4933833;28;20057;-86
2021/01/28 12:37:56;;;;;;;6.45;2.17;;;;;;;;;;4940373;28;20384;-86
2021/01/28 12:40:22;;;;;;;8.35;2.72;;;;;;;;;;4948841;28;20030;-86
2021/01/28 12:42:50;;;;;;;6.07;2.10;;;;;;;;;;4917821;28;20049;-87
2021/01/28 12:45:17;;;;;;;8.68;2.90;;;;;;;;;;4970945;28;20046;-87
2021/01/28 12:47:45;;;;;;;10.13;2.90;;;;;;;;;;4948674;28;20066;-87
2021/01/28 12:50:12;;;;;;;8.10;3.08;;;;;;;;;;4938660;28;20171;-87
2021/01/28 12:52:40;;;;;;;10.93;2.75;;;;;;;;;;4983603;28;20030;-86
2021/01/28 12:55:09;;;;;;;9.27;3.03;;;;;;;;;;4957787;28;20525;-87
2021/01/28 12:57:38;;;;;;;9.30;3.33;;;;;;;;;;4952851;28;20607;-88
2021/01/28 13:00:08;;;;;;;7.68;3.00;;;;;;;;;;4946165;28;20073;-88
2021/01/28 13:02:36;;;;;;;8.48;2.90;;;;;;;;;;4961507;28;20044;-87
2021/01/28 13:05:13;;;;;;;9.68;2.85;;;;;;;;;;4979232;28;20368;-87
2021/01/28 13:07:42;;;;;;;8.07;2.80;;;;;;;;;;4971564;28;20038;-86
2021/01/28 13:10:10;;;;;;;7.22;2.38;;;;;;;;;;4990617;28;20057;-87
2021/01/28 13:12:39;;;;;;;8.32;2.65;;;;;;;;;;4952631;28;20042;-88
2021/01/28 13:15:09;;;;;;;7.50;2.50;;;;;;;;;;4978211;28;20132;-87
2021/01/28 13:17:39;;;;;;;8.80;2.17;;;;;;;;;;4995577;28;20034;-87
2021/01/28 13:20:09;;;;;;;6.47;2.35;;;;;;;;;;5011544;28;20040;-87
2021/01/28 13:22:36;;;;;;;6.57;2.13;;;;;;;;;;5013710;28;20026;-87
2021/01/28 13:25:04;;;;;;;6.05;1.80;;;;;;;;;;5007455;28;20048;-88
2021/01/28 13:27:33;;;;;;;5.65;1.85;;;;;;;;;;4968445;28;21018;-88
2021/01/28 13:30:08;;;;;;;7.47;2.40;;;;;;;;;;5008555;28;20102;-88
2021/01/28 13:32:38;;;;;;;7.38;1.92;;;;;;;;;;4994108;28;20491;-88
2021/01/28 13:35:05;;;;;;;7.38;1.88;;;;;;;;;;4998399;28;20078;-87
2021/01/28 13:37:33;;;;;;;6.20;1.95;;;;;;;;;;5004052;28;20611;-87
2021/01/28 13:40:01;;;;;;;6.15;1.67;;;;;;;;;;4969995;28;20081;-87
2021/01/28 13:42:29;;;;;;;6.40;1.58;;;;;;;;;;4969643;28;20049;-86
2021/01/28 13:44:59;;;;;;;6.90;1.60;;;;;;;;;;4990778;28;20037;-86
2021/01/28 13:47:30;;;;;;;6.57;2.13;;;;;;;;;;4996407;28;20539;-86
2021/01/28 13:49:57;;;;;;;6.80;1.63;;;;;;;;;;4979836;28;20098;-86
2021/01/28 13:52:24;;;;;;;5.18;1.60;;;;;;;;;;5017759;28;20120;-86
2021/01/28 13:54:55;;;;;;;6.25;1.90;;;;;;;;;;4971306;28;20152;-86
2021/01/28 13:57:23;;;;;;;6.32;1.80;;;;;;;;;;4990834;28;20501;-88
2021/01/28 13:59:53;;;;;;;6.13;1.83;;;;;;;;;;5019048;28;20037;-87
2021/01/28 14:02:21;;;;;;;10.77;2.05;;;;;;;;;;4966333;28;20045;-86
2021/01/28 14:04:48;;;;;;;7.28;2.22;;;;;;;;;;4991332;28;20026;-88
2021/01/28 14:07:17;;;;;;;7.53;1.98;;;;;;;;;;5022188;28;20866;-88
2021/01/28 14:09:43;;;;;;;6.65;2.17;;;;;;;;;;5006008;28;20811;-87
2021/01/28 14:12:13;;;;;;;6.30;1.85;;;;;;;;;;4989920;28;20036;-81
2021/01/28 14:14:41;;;;;;;7.70;1.65;;;;;;;;;;5014566;28;20921;-81
2021/01/28 14:17:08;;;;;;;7.53;2.97;;;;;;;;;;4997676;28;20087;-89
2021/01/28 14:19:46;;;;;;;8.30;2.40;;;;;;;;;;5007481;28;20110;-89
2021/01/28 14:22:14;;;;;;;8.10;1.73;;;;;;;;;;4983798;28;20037;-91
2021/01/28 14:24:43;;;;;;;5.07;1.50;;;;;;;;;;4998018;28;20037;-90
2021/01/28 14:27:14;;;;;;;6.40;1.40;;;;;;;;;;4991586;28;20509;-94
2021/01/28 14:29:53;;;;;;;5.80;1.70;;;;;;;;;;4997375;28;20041;-86
2021/01/28 14:32:22;;;;;;;6.47;1.40;;;;;;;;;;4959012;28;20081;-88
2021/01/28 14:34:49;;;;;;;9.27;1.92;;;;;;;;;;4996561;28;20112;-86
2021/01/28 14:37:17;;;;;;;5.05;1.40;;;;;;;;;;5010035;28;20587;-87
2021/01/28 14:39:49;;;;;;;6.18;1.67;;;;;;;;;;4995371;28;20072;-88
2021/01/28 14:42:16;;;;;;;6.35;1.90;;;;;;;;;;5007376;28;21175;-85
2021/01/28 14:44:53;;;;;;;6.65;1.70;;;;;;;;;;4998327;28;20553;-90
2021/01/28 14:47:20;;;;;;;5.82;1.80;;;;;;;;;;4984697;28;20037;-83
2021/01/28 14:49:48;;;;;;;8.18;3.50;;;;;;;;;;4987226;28;20134;-87
2021/01/28 14:52:16;;;;;;;6.03;1.70;;;;;;;;;;5023722;28;20029;-92
2021/01/28 14:54:49;;;;;;;5.40;1.70;;;;;;;;;;5002766;28;20040;-94
2021/01/28 14:57:17;;;;;;;6.80;2.10;;;;;;;;;;5015654;28;20056;-93
2021/01/28 14:59:43;;;;;;;7.00;2.53;;;;;;;;;;4994929;28;20077;-92
2021/01/28 15:02:12;;;;;;;6.65;2.00;;;;;;;;;;5030367;28;20028;-93
2021/01/28 15:04:40;;;;;;;7.97;2.08;;;;;;;;;;5038899;28;20057;-92
2021/01/28 15:07:10;;;;;;;7.10;2.20;;;;;;;;;;5010599;28;20049;-94